Time;durP1;ratioP1;P1;durP2;ratioP2;P2;SDS_P1;SDS_P2;PMS_P1;PMS_P2;Temp;Humidity;BMP_temperature;BMP_pressure;BME280_temperature;BME280_humidity;BME280_pressure;Samples;Min_cycle;Max_cycle;Signal;HPM_P1;HPM_P2
2022/07/22 00:00:07;;;;;;;13.27;5.70;;;717.00;1382.40;;;;;;5074667;28;20461;-78
2022/07/22 00:02:33;;;;;;;8.20;5.95;;;716.90;1408.00;;;;;;5092792;28;20084;-78
2022/07/22 00:04:58;;;;;;;13.15;6.65;;;716.80;1408.00;;;;;;5065719;28;20111;-79
2022/07/22 00:07:24;;;;;;;12.80;5.43;;;716.80;1459.20;;;;;;5073661;28;20030;-77
2022/07/22 00:09:50;;;;;;;11.20;5.68;;;692.10;1459.20;;;;;;5091246;28;20472;-78
2022/07/22 00:12:16;;;;;;;11.50;5.50;;;692.00;1459.20;;;;;;5073968;28;20845;-78
2022/07/22 00:14:41;;;;;;;14.85;5.82;;;692.00;1459.20;;;;;;5091520;28;20012;-78
2022/07/22 00:17:07;;;;;;;12.23;6.18;;;691.90;1484.80;;;;;;5073004;28;20024;-77
2022/07/22 00:19:33;;;;;;;9.43;6.18;;;691.90;1510.40;;;;;;5090521;28;20017;-76
2022/07/22 00:21:59;;;;;;;8.07;5.28;;;691.80;1510.40;;;;;;5070742;28;20106;-76
2022/07/22 00:24:25;;;;;;;16.52;5.97;;;691.60;1536.00;;;;;;5091175;28;20071;-77
2022/07/22 00:26:51;;;;;;;12.82;5.47;;;691.80;1510.40;;;;;;5071841;28;20036;-78
2022/07/22 00:29:17;;;;;;;15.88;5.40;;;691.80;1484.80;;;;;;5070864;28;20097;-78
2022/07/22 00:31:43;;;;;;;13.18;5.45;;;691.90;1484.80;;;;;;5070471;28;20032;-78
2022/07/22 00:34:09;;;;;;;12.73;6.05;;;691.90;1459.20;;;;;;5070961;28;20062;-78
2022/07/22 00:36:35;;;;;;;12.10;6.03;;;691.90;1459.20;;;;;;5071760;28;20025;-77
2022/07/22 00:39:01;;;;;;;11.13;5.60;;;691.90;1459.20;;;;;;5092056;28;20016;-78
2022/07/22 00:41:27;;;;;;;11.23;6.47;;;691.90;1459.20;;;;;;5073679;28;20055;-79
2022/07/22 00:44:05;;;;;;;15.63;6.20;;;692.00;1433.60;;;;;;5072690;28;20025;-78
2022/07/22 00:46:32;;;;;;;15.55;5.97;;;691.80;1459.20;;;;;;5072684;28;20020;-80
2022/07/22 00:48:59;;;;;;;10.13;6.00;;;691.90;1459.20;;;;;;5090719;28;20101;-79
2022/07/22 00:51:27;;;;;;;12.45;6.03;;;691.80;1459.20;;;;;;5090059;28;20016;-78
2022/07/22 00:53:54;;;;;;;9.77;5.55;;;691.80;1459.20;;;;;;5072623;28;20544;-79
2022/07/22 00:56:21;;;;;;;20.58;6.28;;;691.60;1484.80;;;;;;5069725;28;20096;-78
2022/07/22 00:58:49;;;;;;;18.35;6.07;;;691.70;1484.80;;;;;;5087655;28;20055;-80
2022/07/22 01:01:15;;;;;;;10.80;5.63;;;691.60;1510.40;;;;;;5091979;28;20023;-78
2022/07/22 01:03:41;;;;;;;11.10;5.80;;;691.40;1536.00;;;;;;5091299;28;20039;-78
2022/07/22 01:06:07;;;;;;;15.32;5.88;;;691.40;1536.00;;;;;;5093524;28;20016;-79
2022/07/22 01:08:33;;;;;;;11.55;6.03;;;691.40;1561.60;;;;;;5095530;28;20428;-77
2022/07/22 01:11:25;;;;;;;13.90;5.88;;;691.40;1561.60;;;;;;5093911;28;20016;-78
2022/07/22 01:13:52;;;;;;;14.20;5.88;;;691.40;1536.00;;;;;;5075863;28;20436;-77
2022/07/22 01:16:18;;;;;;;12.02;6.32;;;691.30;1536.00;;;;;;5076254;28;20024;-78
2022/07/22 01:18:45;;;;;;;18.85;6.80;;;691.40;1536.00;;;;;;5074271;28;20028;-78
2022/07/22 01:21:12;;;;;;;14.55;6.40;;;691.30;1561.60;;;;;;5093426;28;20023;-80
2022/07/22 01:23:39;;;;;;;13.43;6.28;;;691.20;1561.60;;;;;;5075045;28;20035;-78
2022/07/22 01:26:05;;;;;;;11.48;6.07;;;691.30;1561.60;;;;;;5076056;28;20376;-79
2022/07/22 01:28:31;;;;;;;13.73;6.20;;;691.30;1561.60;;;;;;5076852;28;20031;-79
2022/07/22 01:30:57;;;;;;;14.32;6.35;;;691.30;1561.60;;;;;;5091819;28;20027;-78
2022/07/22 01:33:23;;;;;;;13.95;6.40;;;691.30;1561.60;;;;;;5090082;28;20020;-79
2022/07/22 01:35:49;;;;;;;14.73;7.03;;;691.40;1561.60;;;;;;5076014;28;20024;-79
2022/07/22 01:38:16;;;;;;;16.80;5.63;;;691.40;1536.00;;;;;;5075874;28;20028;-77
2022/07/22 01:40:43;;;;;;;21.35;6.40;;;691.40;1561.60;;;;;;5075636;28;20035;-77
2022/07/22 01:43:09;;;;;;;11.57;6.55;;;691.40;1561.60;;;;;;5072596;28;20563;-78
2022/07/22 01:45:35;;;;;;;10.88;5.88;;;691.30;1561.60;;;;;;5073797;28;20058;-79
2022/07/22 01:48:02;;;;;;;14.23;6.22;;;691.30;1561.60;;;;;;5092641;28;20077;-78
2022/07/22 01:50:28;;;;;;;12.45;6.95;;;691.30;1587.20;;;;;;5076570;28;20024;-78
2022/07/22 01:52:54;;;;;;;11.38;5.72;;;691.30;1587.20;;;;;;5075998;28;20038;-78
2022/07/22 01:55:20;;;;;;;13.13;6.75;;;691.20;1587.20;;;;;;5094933;28;20099;-79
2022/07/22 01:57:46;;;;;;;16.25;6.93;;;666.40;1612.80;;;;;;5076625;28;20089;-79
2022/07/22 02:00:13;;;;;;;17.75;6.90;;;666.30;1612.80;;;;;;5095098;28;20016;-78
2022/07/22 02:02:39;;;;;;;14.27;6.38;;;666.50;1612.80;;;;;;5075766;28;20048;-79
2022/07/22 02:05:06;;;;;;;15.25;6.38;;;666.50;1612.80;;;;;;5075925;28;20028;-79
2022/07/22 02:07:32;;;;;;;13.55;7.13;;;666.40;1638.40;;;;;;5076648;28;20036;-79
2022/07/22 02:10:01;;;;;;;14.05;6.43;;;666.20;1638.40;;;;;;5073129;28;20032;-79
2022/07/22 02:12:27;;;;;;;13.88;6.18;;;666.20;1664.00;;;;;;5091837;28;20024;-78
2022/07/22 02:14:53;;;;;;;10.55;6.32;;;666.10;1715.20;;;;;;5076346;28;20537;-78
2022/07/22 02:17:18;;;;;;;14.77;5.70;;;666.10;1766.40;;;;;;5092345;28;20020;-79
2022/07/22 02:19:44;;;;;;;11.60;6.25;;;665.90;1792.00;;;;;;5076496;28;20381;-78
2022/07/22 02:22:10;;;;;;;12.45;5.80;;;665.90;1817.60;;;;;;5076227;28;20028;-80
2022/07/22 02:24:36;;;;;;;12.32;6.32;;;665.70;1894.40;;;;;;5094616;28;20024;-79
2022/07/22 02:27:03;;;;;;;13.30;6.20;;;665.60;1945.60;;;;;;5075710;28;20027;-82
2022/07/22 02:29:29;;;;;;;14.88;7.00;;;640.90;2073.60;;;;;;5076007;28;20024;-79
2022/07/22 02:31:55;;;;;;;15.52;6.40;;;640.80;2150.40;;;;;;5094727;28;20016;-79
2022/07/22 02:34:21;;;;;;;9.55;5.45;;;640.60;2124.80;;;;;;5076315;28;20020;-81
2022/07/22 02:36:47;;;;;;;9.70;5.93;;;640.60;2124.80;;;;;;5076167;28;20024;-79
2022/07/22 02:39:13;;;;;;;13.63;6.65;;;640.50;2073.60;;;;;;5094663;28;20077;-79
2022/07/22 02:41:38;;;;;;;14.80;6.43;;;640.50;2048.00;;;;;;5076252;28;20044;-80
2022/07/22 02:44:04;;;;;;;13.55;6.07;;;640.60;2099.20;;;;;;5094497;28;20042;-84
2022/07/22 02:46:30;;;;;;;9.80;6.40;;;640.50;2099.20;;;;;;5075982;28;20488;-81
2022/07/22 02:48:56;;;;;;;11.18;6.05;;;640.50;2073.60;;;;;;5076122;28;20119;-80
2022/07/22 02:51:22;;;;;;;21.15;6.53;;;640.40;2073.60;;;;;;5094056;28;20062;-78
2022/07/22 02:53:49;;;;;;;16.35;6.13;;;640.40;2073.60;;;;;;5099730;28;20032;-79
2022/07/22 02:56:15;;;;;;;13.23;6.65;;;640.50;2022.40;;;;;;5077847;28;20028;-79
2022/07/22 02:58:41;;;;;;;20.05;7.10;;;640.40;2022.40;;;;;;5075889;28;20476;-80
2022/07/22 03:01:08;;;;;;;15.98;6.93;;;640.50;2022.40;;;;;;5075238;28;20170;-79
2022/07/22 03:03:33;;;;;;;18.23;6.50;;;640.40;2022.40;;;;;;5075845;28;20032;-77
2022/07/22 03:05:59;;;;;;;16.42;6.70;;;640.40;1996.80;;;;;;5075553;28;20020;-78
2022/07/22 03:08:25;;;;;;;11.23;7.03;;;640.20;1996.80;;;;;;5075632;28;20028;-80
2022/07/22 03:10:52;;;;;;;11.93;6.60;;;640.10;1996.80;;;;;;5073841;28;20085;-79
2022/07/22 03:13:17;;;;;;;16.48;6.63;;;640.10;2022.40;;;;;;5075439;28;20386;-78
2022/07/22 03:15:43;;;;;;;16.95;7.20;;;640.40;2022.40;;;;;;5075507;28;20012;-79
2022/07/22 03:18:09;;;;;;;13.02;6.88;;;640.20;2022.40;;;;;;5075445;28;20024;-79
2022/07/22 03:20:36;;;;;;;16.75;7.20;;;640.00;2048.00;;;;;;5075105;28;20028;-78
2022/07/22 03:23:02;;;;;;;13.88;6.38;;;640.10;2022.40;;;;;;5074111;28;20040;-78
2022/07/22 03:25:30;;;;;;;13.18;7.43;;;640.10;2022.40;;;;;;5072396;28;20016;-78
2022/07/22 03:27:56;;;;;;;16.15;7.22;;;640.00;2022.40;;;;;;5075365;28;20054;-78
2022/07/22 03:30:22;;;;;;;22.83;6.95;;;615.30;2048.00;;;;;;5093391;28;20020;-78
2022/07/22 03:32:48;;;;;;;11.13;6.22;;;615.30;2048.00;;;;;;5093411;28;20074;-79
2022/07/22 03:35:15;;;;;;;10.27;5.93;;;615.30;2048.00;;;;;;5093251;28;20015;-77
2022/07/22 03:37:42;;;;;;;12.88;6.38;;;640.00;2048.00;;;;;;5093533;28;20063;-78
2022/07/22 03:40:08;;;;;;;14.73;7.50;;;640.00;2073.60;;;;;;5093255;28;20369;-79
2022/07/22 03:42:34;;;;;;;13.55;7.00;;;640.00;2073.60;;;;;;5093163;28;20028;-78
2022/07/22 03:45:00;;;;;;;11.75;6.47;;;640.00;2073.60;;;;;;5093361;28;20016;-79
2022/07/22 03:47:26;;;;;;;14.77;7.03;;;615.20;2099.20;;;;;;5071844;28;20077;-78
2022/07/22 03:49:52;;;;;;;22.15;8.57;;;615.30;2099.20;;;;;;5093245;28;20020;-79
2022/07/22 03:52:18;;;;;;;18.50;8.98;;;640.00;2073.60;;;;;;5075294;28;20487;-77
2022/07/22 03:54:44;;;;;;;13.52;9.18;;;640.00;2073.60;;;;;;5074774;28;20024;-78
2022/07/22 03:57:10;;;;;;;22.00;9.27;;;640.00;2124.80;;;;;;5074626;28;20366;-79
2022/07/22 03:59:37;;;;;;;13.85;6.70;;;640.00;2124.80;;;;;;5074989;28;20107;-79
2022/07/22 04:02:03;;;;;;;13.80;7.28;;;640.10;2124.80;;;;;;5092935;28;20092;-77
2022/07/22 04:04:29;;;;;;;22.42;9.10;;;640.10;2176.00;;;;;;5074756;28;20030;-78
2022/07/22 04:06:55;;;;;;;21.30;8.43;;;640.10;2150.40;;;;;;5074421;28;20036;-78
2022/07/22 04:09:21;;;;;;;23.08;8.23;;;640.10;2176.00;;;;;;5074512;28;20040;-78
2022/07/22 04:11:47;;;;;;;19.25;6.80;;;640.20;2176.00;;;;;;5092798;28;20021;-78
2022/07/22 04:14:14;;;;;;;14.38;6.78;;;640.20;2227.20;;;;;;5092910;28;20023;-78
2022/07/22 04:16:39;;;;;;;12.93;6.45;;;640.10;2252.80;;;;;;5074794;28;20023;-77
2022/07/22 04:19:05;;;;;;;14.27;6.45;;;640.20;2227.20;;;;;;5074786;28;20079;-79
2022/07/22 04:21:31;;;;;;;17.90;8.38;;;640.20;2227.20;;;;;;5075040;28;20024;-78
2022/07/22 04:23:57;;;;;;;17.08;7.80;;;640.20;2252.80;;;;;;5093132;28;20020;-79
2022/07/22 04:26:23;;;;;;;8.98;6.22;;;640.40;2278.40;;;;;;5074563;28;20032;-79
2022/07/22 04:28:48;;;;;;;12.95;7.00;;;640.40;2278.40;;;;;;5071454;28;20078;-78
2022/07/22 04:31:14;;;;;;;16.92;6.75;;;640.40;2227.20;;;;;;5072210;28;20028;-80
2022/07/22 04:33:40;;;;;;;17.27;9.13;;;640.50;2176.00;;;;;;5076177;28;20032;-78
2022/07/22 04:36:06;;;;;;;20.15;8.73;;;640.60;2150.40;;;;;;5078528;28;20541;-77
2022/07/22 04:38:32;;;;;;;17.65;7.40;;;640.50;2150.40;;;;;;5078478;28;20028;-78
2022/07/22 04:40:58;;;;;;;15.85;7.32;;;640.60;2124.80;;;;;;5096594;28;20022;-78
2022/07/22 04:43:24;;;;;;;14.13;6.78;;;640.70;2099.20;;;;;;5078575;28;20582;-78
2022/07/22 04:45:50;;;;;;;16.75;6.15;;;640.70;2073.60;;;;;;5096551;28;20017;-78
2022/07/22 04:48:16;;;;;;;15.07;6.25;;;640.90;1920.00;;;;;;5096703;28;20023;-78
2022/07/22 04:50:42;;;;;;;15.90;5.82;;;665.60;1868.80;;;;;;5078282;28;20012;-78
2022/07/22 04:53:08;;;;;;;9.00;4.63;;;640.90;1740.80;;;;;;5096389;28;20078;-79
2022/07/22 04:55:34;;;;;;;11.05;4.40;;;665.70;1715.20;;;;;;5077791;28;20358;-79
2022/07/22 04:57:59;;;;;;;10.77;5.30;;;665.80;1612.80;;;;;;5096187;28;20039;-77
2022/07/22 05:00:25;;;;;;;10.88;4.40;;;665.90;1536.00;;;;;;5096519;28;20089;-80
2022/07/22 05:02:51;;;;;;;9.32;4.65;;;665.90;1536.00;;;;;;5085118;28;20028;-79
2022/07/22 05:05:17;;;;;;;7.65;4.75;;;666.00;1459.20;;;;;;5086754;28;20023;-79
2022/07/22 05:07:43;;;;;;;14.93;4.85;;;666.10;1433.60;;;;;;5096543;28;20048;-74
2022/07/22 05:10:09;;;;;;;16.98;5.70;;;666.20;1433.60;;;;;;5096243;28;20028;-78
2022/07/22 05:12:35;;;;;;;16.48;5.97;;;666.20;1408.00;;;;;;5096246;28;20070;-79
2022/07/22 05:15:01;;;;;;;9.57;4.07;;;666.20;1408.00;;;;;;5079395;28;20048;-76
2022/07/22 05:17:27;;;;;;;9.32;4.25;;;666.20;1382.40;;;;;;5096170;28;20377;-76
2022/07/22 05:19:53;;;;;;;14.05;5.07;;;666.30;1356.80;;;;;;5063534;28;20032;-79
2022/07/22 05:22:19;;;;;;;10.00;4.57;;;666.50;1356.80;;;;;;5095349;28;20051;-76
2022/07/22 05:24:45;;;;;;;14.77;4.90;;;666.50;1356.80;;;;;;5095749;28;20015;-77
2022/07/22 05:27:11;;;;;;;8.52;5.03;;;666.50;1356.80;;;;;;5076947;28;20107;-78
2022/07/22 05:29:37;;;;;;;11.98;4.78;;;691.20;1356.80;;;;;;5095862;28;20027;-81
2022/07/22 05:32:03;;;;;;;12.07;4.60;;;691.20;1331.20;;;;;;5096103;28;20062;-80
2022/07/22 05:34:29;;;;;;;10.65;4.07;;;691.20;1331.20;;;;;;5096201;28;20119;-78
2022/07/22 05:36:55;;;;;;;12.25;5.10;;;691.40;1331.20;;;;;;5095790;28;20163;-75
2022/07/22 05:39:21;;;;;;;14.90;5.00;;;691.40;1331.20;;;;;;5084625;28;20552;-75
2022/07/22 05:41:46;;;;;;;9.93;5.13;;;691.40;1356.80;;;;;;5090241;28;20528;-81
2022/07/22 05:44:13;;;;;;;10.63;5.55;;;691.40;1356.80;;;;;;5068510;28;20027;-79
2022/07/22 05:46:39;;;;;;;7.18;4.63;;;691.40;1331.20;;;;;;5088397;28;20219;-74
2022/07/22 05:49:05;;;;;;;15.25;4.47;;;691.40;1331.20;;;;;;5095816;28;20101;-79
2022/07/22 05:51:31;;;;;;;9.30;4.75;;;691.60;1280.00;;;;;;5095749;28;20030;-80
2022/07/22 05:53:57;;;;;;;10.18;3.97;;;691.60;1305.60;;;;;;5095536;28;20016;-78
2022/07/22 05:56:22;;;;;;;9.00;3.80;;;691.60;1280.00;;;;;;5080411;28;20067;-79
2022/07/22 05:58:48;;;;;;;13.20;5.43;;;691.70;1254.40;;;;;;5106571;28;20036;-78
2022/07/22 06:01:14;;;;;;;14.05;4.90;;;691.80;1280.00;;;;;;5095232;28;20021;-77
2022/07/22 06:03:40;;;;;;;12.05;4.32;;;691.90;1305.60;;;;;;5088153;28;20437;-79
2022/07/22 06:06:08;;;;;;;11.45;3.90;;;692.00;1305.60;;;;;;5084167;28;20027;-78
2022/07/22 06:08:35;;;;;;;9.88;4.88;;;692.10;1305.60;;;;;;5063077;28;20028;-76
2022/07/22 06:11:01;;;;;;;8.85;4.28;;;716.80;1356.80;;;;;;5095230;28;20115;-79
2022/07/22 06:13:27;;;;;;;11.48;4.57;;;716.90;1356.80;;;;;;5062901;28;20437;-80
2022/07/22 06:15:53;;;;;;;10.93;4.47;;;716.90;1331.20;;;;;;5086851;28;20093;-77
2022/07/22 06:18:19;;;;;;;11.45;4.60;;;716.90;1305.60;;;;;;5099252;28;20024;-77
2022/07/22 06:20:45;;;;;;;61.17;10.82;;;717.00;1305.60;;;;;;5089457;28;20028;-77
2022/07/22 06:23:11;;;;;;;17.50;4.50;;;717.20;1305.60;;;;;;5108886;28;20031;-78
2022/07/22 06:25:37;;;;;;;19.98;5.30;;;717.30;1280.00;;;;;;5094862;28;20027;-79
2022/07/22 06:28:03;;;;;;;16.20;5.10;;;717.40;1280.00;;;;;;5095138;28;20405;-81
2022/07/22 06:30:29;;;;;;;11.80;5.15;;;717.40;1280.00;;;;;;5094922;28;20066;-79
2022/07/22 06:32:55;;;;;;;14.27;4.47;;;717.50;1254.40;;;;;;5094736;28;20509;-79
2022/07/22 06:35:21;;;;;;;12.05;5.55;;;717.70;1280.00;;;;;;5094586;28;20385;-81
2022/07/22 06:37:47;;;;;;;15.10;4.78;;;742.40;1280.00;;;;;;5094834;28;20032;-78
2022/07/22 06:40:12;;;;;;;16.02;5.32;;;742.40;1280.00;;;;;;5094587;28;20035;-77
2022/07/22 06:42:39;;;;;;;21.45;5.45;;;742.60;1280.00;;;;;;5094417;28;20032;-79
2022/07/22 06:45:05;;;;;;;20.35;5.10;;;742.60;1280.00;;;;;;5094093;28;20031;-78
2022/07/22 07:02:05;;;;;;;;;;;742.70;1280.00;;;;;;5130317;27;20458;-77
2022/07/22 07:04:30;;;;;;;;;;;768.40;1203.20;;;;;;5124502;28;20368;-79
2022/07/22 07:06:56;;;;;;;14.83;5.17;;;768.20;1203.20;;;;;;5127722;28;19957;-81
2022/07/22 07:09:22;;;;;;;18.60;5.60;;;768.30;1203.20;;;;;;5128524;28;20020;-78
2022/07/22 07:11:48;;;;;;;15.27;5.30;;;768.30;1203.20;;;;;;5125503;28;20024;-78
2022/07/22 07:14:14;;;;;;;12.00;4.82;;;768.40;1177.60;;;;;;5126388;27;20027;-76
2022/07/22 07:16:40;;;;;;;12.48;4.57;;;768.40;1203.20;;;;;;5128487;28;20034;-77
2022/07/22 07:19:05;;;;;;;13.27;5.07;;;768.60;1203.20;;;;;;5106900;28;20480;-78
2022/07/22 07:21:31;;;;;;;17.20;7.63;;;768.80;1177.60;;;;;;5097057;28;20024;-79
2022/07/22 07:23:58;;;;;;;17.73;5.95;;;768.80;1177.60;;;;;;5098144;28;20486;-78
2022/07/22 07:26:24;;;;;;;15.98;5.78;;;793.60;1177.60;;;;;;5098475;28;20024;-77
2022/07/22 07:28:49;;;;;;;13.27;5.97;;;793.60;1177.60;;;;;;5098289;28;20025;-76
2022/07/22 07:31:16;;;;;;;16.50;5.50;;;793.70;1152.00;;;;;;5098219;28;20070;-77
2022/07/22 07:33:42;;;;;;;16.55;5.25;;;793.80;1152.00;;;;;;5108583;28;20062;-78
2022/07/22 07:36:08;;;;;;;16.15;5.53;;;794.00;1152.00;;;;;;5108886;28;20051;-78
2022/07/22 07:38:35;;;;;;;12.00;5.43;;;794.10;1152.00;;;;;;5107609;28;20625;-78
2022/07/22 07:41:00;;;;;;;15.70;5.72;;;794.20;1126.40;;;;;;5107744;28;20035;-74
2022/07/22 07:43:26;;;;;;;10.35;5.15;;;794.30;1126.40;;;;;;5108882;28;20028;-75
2022/07/22 07:45:52;;;;;;;14.52;5.90;;;794.40;1126.40;;;;;;5108519;28;20026;-78
2022/07/22 07:48:18;;;;;;;14.20;5.68;;;794.40;1152.00;;;;;;5107526;28;20040;-77
2022/07/22 07:50:44;;;;;;;13.35;5.53;;;819.30;1126.40;;;;;;5106763;28;20480;-78
2022/07/22 07:53:14;;;;;;;13.45;4.88;;;819.30;1100.80;;;;;;5098204;28;20044;-77
2022/07/22 07:55:40;;;;;;;13.15;5.22;;;819.40;1075.20;;;;;;5095810;28;20016;-76
2022/07/22 07:58:06;;;;;;;11.82;5.53;;;819.50;1024.00;;;;;;5090794;28;20042;-75
2022/07/22 08:00:34;;;;;;;17.75;4.95;;;819.60;1024.00;;;;;;5094339;28;20543;-76
2022/07/22 08:03:00;;;;;;;17.42;5.75;;;819.70;1024.00;;;;;;5095168;28;20060;-75
2022/07/22 08:05:26;;;;;;;10.98;4.60;;;819.80;1024.00;;;;;;5095021;28;20020;-76
2022/07/22 08:07:53;;;;;;;14.38;5.45;;;819.50;1049.60;;;;;;5094786;28;20012;-75
2022/07/22 08:10:19;;;;;;;14.48;5.18;;;819.90;1024.00;;;;;;5096140;28;20543;-75
2022/07/22 08:12:45;;;;;;;11.93;4.70;;;819.80;1024.00;;;;;;5085608;28;20044;-76
2022/07/22 08:28:37;;;;;;;11.85;3.83;;;820.00;972.80;;;;;;5117145;27;20380;-78
2022/07/22 08:31:03;;;;;;;10.02;4.03;;;845.70;896.00;;;;;;5109770;28;20016;-77
2022/07/22 08:33:29;;;;;;;9.32;3.28;;;845.60;896.00;;;;;;5121998;28;20504;-79
2022/07/22 08:35:55;;;;;;;10.55;3.25;;;845.50;870.40;;;;;;5130214;27;20016;-80
2022/07/22 08:38:21;;;;;;;8.95;3.55;;;845.40;870.40;;;;;;5116730;27;20506;-80
2022/07/22 08:40:47;;;;;;;11.27;3.78;;;845.40;870.40;;;;;;5124104;27;20103;-79
2022/07/22 08:43:13;;;;;;;10.40;3.33;;;845.50;844.80;;;;;;5118884;28;20019;-78
2022/07/22 08:45:40;;;;;;;8.52;3.30;;;845.70;844.80;;;;;;5128713;27;20031;-78
2022/07/22 08:48:06;;;;;;;9.98;3.60;;;845.50;844.80;;;;;;5125230;28;20493;-79
2022/07/22 08:50:32;;;;;;;8.55;3.30;;;845.50;844.80;;;;;;5128783;28;20047;-79
2022/07/22 08:52:58;;;;;;;5.35;3.00;;;845.50;870.40;;;;;;5129902;27;20015;-80
2022/07/22 08:55:25;;;;;;;8.68;3.42;;;845.60;844.80;;;;;;5116536;27;20156;-78
2022/07/22 08:57:50;;;;;;;6.40;5.07;;;845.70;870.40;;;;;;5127333;27;20507;-79
2022/07/22 09:00:19;;;;;;;8.15;3.83;;;845.70;844.80;;;;;;5128310;28;20110;-79
2022/07/22 09:02:46;;;;;;;7.68;4.13;;;845.70;870.40;;;;;;5129673;27;20052;-78
2022/07/22 09:05:14;;;;;;;12.02;3.42;;;845.70;870.40;;;;;;5143209;27;19999;-78
2022/07/22 09:07:42;;;;;;;6.53;3.45;;;845.70;870.40;;;;;;5149953;27;20015;-78
2022/07/22 09:10:10;;;;;;;6.32;3.25;;;870.50;870.40;;;;;;5129381;27;20028;-79
2022/07/22 09:12:54;;;;;;;6.32;3.22;;;870.50;819.20;;;;;;5108176;28;20405;-79
2022/07/22 09:15:39;;;;;;;5.63;2.83;;;870.70;819.20;;;;;;5128330;27;20019;-78
2022/07/22 09:18:05;;;;;;;5.63;3.35;;;870.80;793.60;;;;;;5124034;28;20031;-77
2022/07/22 09:20:33;;;;;;;6.57;3.08;;;870.80;768.00;;;;;;5117225;28;20100;-76
2022/07/22 09:22:59;;;;;;;8.68;3.33;;;870.90;768.00;;;;;;5129384;27;20503;-76
2022/07/22 09:25:28;;;;;;;5.90;2.95;;;871.00;768.00;;;;;;5129068;27;20026;-81
2022/07/22 09:28:09;;;;;;;5.82;3.35;;;871.10;716.80;;;;;;5124725;27;20378;-79
2022/07/22 09:30:48;;;;;;;8.50;3.38;;;871.10;742.40;;;;;;5090360;28;20054;-77
2022/07/22 09:33:14;;;;;;;7.57;3.47;;;871.30;793.60;;;;;;5100915;28;20091;-78
2022/07/22 09:35:40;;;;;;;6.30;3.58;;;871.30;768.00;;;;;;5115521;27;20099;-80
2022/07/22 09:38:11;;;;;;;12.35;3.30;;;896.00;793.60;;;;;;5115044;27;20039;-77
2022/07/22 09:40:40;;;;;;;8.60;3.13;;;896.20;768.00;;;;;;5087199;28;20026;-80
2022/07/22 09:43:16;;;;;;;6.60;3.10;;;896.60;768.00;;;;;;5115155;28;20019;-80
2022/07/22 09:45:53;;;;;;;7.63;3.40;;;896.80;742.40;;;;;;5115299;28;20473;-80
2022/07/22 09:48:21;;;;;;;7.13;2.47;;;896.90;742.40;;;;;;5115284;28;20038;-81
2022/07/22 09:50:48;;;;;;;8.35;2.85;;;896.90;716.80;;;;;;5113405;28;20016;-81
2022/07/22 09:53:16;;;;;;;8.73;3.30;;;921.70;742.40;;;;;;5113995;28;20035;-79
2022/07/22 09:55:42;;;;;;;6.30;3.05;;;921.70;716.80;;;;;;5113281;28;20019;-79
2022/07/22 09:58:08;;;;;;;7.35;3.17;;;921.70;716.80;;;;;;5114938;28;20046;-77
2022/07/22 10:00:36;;;;;;;5.53;3.40;;;921.80;742.40;;;;;;5112939;28;20118;-80
2022/07/22 10:03:06;;;;;;;15.77;3.72;;;922.00;742.40;;;;;;5114997;28;20019;-78
2022/07/22 10:05:36;;;;;;;5.32;3.15;;;922.30;742.40;;;;;;5113169;28;20365;-77
2022/07/22 10:08:04;;;;;;;9.95;4.05;;;922.50;742.40;;;;;;5114680;28;20024;-77
2022/07/22 10:10:32;;;;;;;8.00;3.50;;;922.40;716.80;;;;;;5102421;28;20392;-82
2022/07/22 10:12:59;;;;;;;4.35;3.10;;;922.50;716.80;;;;;;5098519;28;20387;-77
2022/07/22 10:15:26;;;;;;;5.40;3.13;;;947.20;691.20;;;;;;5106149;28;20019;-82
2022/07/22 10:17:56;;;;;;;5.80;2.88;;;947.30;691.20;;;;;;5112974;28;20111;-79
2022/07/22 10:20:25;;;;;;;8.48;3.22;;;947.50;716.80;;;;;;5114372;28;20019;-80
2022/07/22 10:22:56;;;;;;;8.15;3.20;;;947.70;716.80;;;;;;5113222;28;20065;-80
2022/07/22 10:25:24;;;;;;;11.40;3.22;;;947.80;691.20;;;;;;5114406;28;20024;-79
2022/07/22 10:28:00;;;;;;;7.43;2.88;;;948.00;691.20;;;;;;5114057;28;20036;-81
2022/07/22 10:30:27;;;;;;;7.32;2.67;;;948.00;691.20;;;;;;5085213;28;20019;-79
2022/07/22 10:33:08;;;;;;;6.95;3.03;;;948.10;691.20;;;;;;5097976;28;20020;-79
2022/07/22 10:35:36;;;;;;;9.30;2.80;;;972.80;691.20;;;;;;5085851;28;20015;-81
2022/07/22 10:38:05;;;;;;;9.30;3.78;;;973.00;716.80;;;;;;5101043;28;20078;-84
2022/07/22 10:40:49;;;;;;;4.47;3.28;;;973.00;691.20;;;;;;5098149;28;20039;-79
2022/07/22 10:43:17;;;;;;;7.50;3.40;;;973.20;691.20;;;;;;5109584;28;20106;-79
2022/07/22 10:45:52;;;;;;;7.00;3.75;;;973.30;691.20;;;;;;5114030;28;20410;-79
2022/07/22 10:48:20;;;;;;;6.10;3.25;;;973.50;691.20;;;;;;5113986;28;20031;-78
2022/07/22 10:51:04;;;;;;;6.65;3.05;;;973.60;665.60;;;;;;5113697;28;20370;-80
2022/07/22 10:53:51;;;;;;;5.63;2.75;;;973.60;665.60;;;;;;5091324;28;20085;-78
2022/07/22 10:56:26;;;;;;;5.53;3.10;;;973.70;691.20;;;;;;5091656;28;20035;-78
2022/07/22 10:59:01;;;;;;;;;;;973.60;665.60;;;;;;5113855;28;20027;-78
2022/07/22 11:01:30;;;;;;;5.13;3.08;;;998.40;691.20;;;;;;5112297;28;19915;-80
2022/07/22 11:04:07;;;;;;;9.52;3.25;;;998.50;691.20;;;;;;5113582;28;20026;-81
2022/07/22 11:06:33;;;;;;;6.45;3.08;;;998.50;691.20;;;;;;5113258;28;20089;-79
2022/07/22 11:09:05;;;;;;;8.88;3.47;;;998.40;665.60;;;;;;5088946;28;20028;-79
2022/07/22 11:11:44;;;;;;;8.30;3.20;;;973.70;640.00;;;;;;5105986;28;20027;-78
2022/07/22 11:14:19;;;;;;;6.05;2.97;;;973.60;665.60;;;;;;5091305;28;20091;-76
2022/07/22 11:16:47;;;;;;;8.15;3.13;;;998.40;691.20;;;;;;5090697;28;20032;-76
2022/07/22 11:19:14;;;;;;;5.53;3.20;;;998.40;691.20;;;;;;5092485;28;20019;-78
2022/07/22 11:21:40;;;;;;;3.80;3.05;;;998.60;691.20;;;;;;5092856;28;20477;-77
2022/07/22 11:24:07;;;;;;;6.72;3.38;;;998.80;716.80;;;;;;5092341;28;20024;-78
2022/07/22 11:26:41;;;;;;;6.40;3.38;;;998.80;665.60;;;;;;5090817;28;20024;-79
2022/07/22 11:29:10;;;;;;;10.07;2.97;;;998.80;665.60;;;;;;5089373;28;20162;-75
2022/07/22 11:31:38;;;;;;;5.40;3.13;;;998.90;665.60;;;;;;5073493;28;20028;-77
2022/07/22 11:34:12;;;;;;;5.80;3.22;;;999.00;640.00;;;;;;5072025;28;20036;-80
2022/07/22 11:36:41;;;;;;;9.10;3.00;;;999.10;665.60;;;;;;5073226;28;20596;-76
2022/07/22 11:39:08;;;;;;;5.95;3.15;;;999.00;640.00;;;;;;5073232;28;20036;-76
2022/07/22 11:41:35;;;;;;;4.80;2.85;;;999.10;640.00;;;;;;5071847;28;20119;-78
2022/07/22 11:44:01;;;;;;;6.85;3.10;;;998.80;640.00;;;;;;5071736;28;20112;-77
2022/07/22 11:46:28;;;;;;;5.75;2.95;;;998.90;665.60;;;;;;5079157;28;20035;-77
2022/07/22 11:48:56;;;;;;;8.00;3.50;;;998.90;665.60;;;;;;5093432;28;20058;-79
2022/07/22 11:51:29;;;;;;;4.45;3.10;;;998.80;665.60;;;;;;5092983;28;20112;-78
2022/07/22 11:53:55;;;;;;;13.27;3.50;;;999.00;665.60;;;;;;5092185;28;20515;-82
2022/07/22 11:56:20;;;;;;;6.50;3.55;;;999.10;665.60;;;;;;5092086;28;20063;-79
2022/07/22 11:58:49;;;;;;;9.65;3.92;;;999.10;665.60;;;;;;5091084;28;20059;-81
2022/07/22 12:01:17;;;;;;;11.88;3.92;;;999.10;691.20;;;;;;5088244;28;20024;-80
2022/07/22 12:03:52;;;;;;;6.93;3.45;;;999.20;665.60;;;;;;5083418;28;20034;-79
2022/07/22 12:06:19;;;;;;;;;;;999.20;665.60;;;;;;5092087;28;20496;-79
2022/07/22 12:08:50;;;;;;;7.00;3.22;;;999.20;665.60;;;;;;5089661;28;19904;-79
2022/07/22 12:11:18;;;;;;;7.32;3.05;;;1024.10;665.60;;;;;;5089177;28;20501;-83
2022/07/22 12:13:46;;;;;;;5.78;2.90;;;1024.10;665.60;;;;;;5092874;28;20027;-81
2022/07/22 12:16:27;;;;;;;4.50;3.17;;;1024.20;640.00;;;;;;5091569;28;20230;-78
2022/07/22 12:19:12;;;;;;;4.00;2.65;;;1024.20;640.00;;;;;;5089518;28;20388;-80
2022/07/22 12:21:51;;;;;;;3.50;2.70;;;1024.20;665.60;;;;;;5091071;28;20039;-77
2022/07/22 12:24:28;;;;;;;7.25;3.10;;;1024.30;640.00;;;;;;5072855;28;20021;-85
2022/07/22 12:26:56;;;;;;;7.32;3.25;;;1024.30;640.00;;;;;;5077791;28;20043;-77
2022/07/22 12:29:25;;;;;;;5.05;3.10;;;1024.30;640.00;;;;;;5092866;28;20096;-77
2022/07/22 12:31:54;;;;;;;6.00;3.35;;;1024.20;640.00;;;;;;5092468;28;20102;-79
2022/07/22 12:34:37;;;;;;;6.10;3.28;;;1024.40;640.00;;;;;;5091681;28;20051;-78
2022/07/22 12:37:19;;;;;;;7.47;3.17;;;1024.40;640.00;;;;;;5072719;28;20028;-78
2022/07/22 12:39:55;;;;;;;7.90;3.50;;;1024.50;640.00;;;;;;5072867;28;20021;-78
2022/07/22 12:42:22;;;;;;;5.22;3.20;;;1024.40;640.00;;;;;;5086421;28;20039;-79
2022/07/22 12:44:54;;;;;;;3.90;2.72;;;1024.50;614.40;;;;;;5092790;28;20012;-80